Relatórios de METAR próximas

 

LPAR - Alverca, Portugal
Distance from station: S 38km
Actualizado: 21/11/2019 17:00
NÃO Actual
Few Clouds
Few Clouds
 Vento de ONO
Vento: ONO 11 km/h
Temperatura: 16°C
Ponto de Orvalho: 9°C
Humidade: 63%
Barómetro: 1007 hPa
Nuvens: Few Clouds
Visibilidade: 10 km
Cloud details: Few Clouds 762 m
2019/11/21 17:00 LPAR 211700Z 30006KT 9999 FEW025 16/09 Q1007
LPPT - Lisbon/Portela, Portugal
Distance from station: S 52km
Actualizado: 21/11/2019 23:00
Muito Nublado
Muito Nublado
 Vento de S
Vento: S 15 km/h
Temperatura: 13°C
Ponto de Orvalho: 12°C
Humidade: 94%
Barómetro: 1005 hPa
Nuvens: Muito Nublado
Visibilidade: 10 km
Cloud details: Few Clouds 671 m
Muito Nublado 1006 m
2019/11/21 23:00 LPPT 212300Z 18008KT 9999 FEW022 BKN033 13/12 Q1005
 
LPST - Sintra/Granja (a, Portugal
Distance from station: SSO 53km
Actualizado: 21/11/2019 17:00
NÃO Actual
Parc. Nublado
Parc. Nublado
 Vento de O
Vento: O 13 km/h
Temperatura: 15°C
Ponto de Orvalho: 11°C
Humidade: 77%
Barómetro: 1007 hPa
Nuvens: Parc. Nublado
Visibilidade: 10 km
Cloud details: Parc. Nublado 610 m
2019/11/21 17:00 LPST 211700Z 28007KT 9999 SCT020 15/11 Q1007
LPMT - Montijo (por-Afb, Portugal
Distance from station: S 59km
Actualizado: 21/11/2019 23:00
Parc. Nublado
Parc. Nublado
 Vento de S
Vento: S 13 km/h
Temperatura: 14°C
Ponto de Orvalho: 12°C
Humidade: 88%
Barómetro: 1005 hPa
Nuvens: Parc. Nublado
Visibilidade: 10 km
Cloud details: Parc. Nublado 1219 m
2019/11/21 23:00 LPMT 212300Z 17007KT 9999 SCT040 14/12 Q1005
 
LPCS - Cascais, Portugal
Distance from station: SSO 63km
Actualizado: 21/11/2019 19:00
NÃO Actual
Few Clouds
Few Clouds
 Vento de calm
Vento: Calmo
Temperatura: 12°C
Ponto de Orvalho: 12°C
Humidade: 100%
Barómetro: 1007 hPa
Nuvens: Few Clouds
Visibilidade: 10 km
Cloud details: Few Clouds 457 m
2019/11/21 19:00 LPCS 211900Z 00000KT 9999 FEW015 12/12 Q1007
LPMR - Monte Real(Por-A, Portugal
Distance from station: N 67km
Actualizado: 21/11/2019 23:00
Chuva fraca, Algumas Nuvens
Chuva fraca, Algumas Nuvens
 Vento de SSE
Vento: SSE 7 km/h
Temperatura: 11°C
Ponto de Orvalho: 10°C
Humidade: 94%
Barómetro: 1004 hPa
Resumo: Chuva fraca
Nuvens: Few Clouds
Visibilidade: 9 km
Cloud details: Few Clouds 1219 m
2019/11/21 23:00 LPMR 212300Z 15004KT 9000 -RA FEW040 11/10 Q1004